sensor_id;sensor_type;location;lat;lon;timestamp;temperature;humidity
67249;SHT31;63247;54.300;18.592;2023-01-19T00:01:52;0.46;99.99
67249;SHT31;63247;54.300;18.592;2023-01-19T00:04:17;0.47;99.99
67249;SHT31;63247;54.300;18.592;2023-01-19T00:06:43;0.53;99.99
67249;SHT31;63247;54.300;18.592;2023-01-19T00:09:08;0.54;99.99
67249;SHT31;63247;54.300;18.592;2023-01-19T00:11:34;0.56;99.99
67249;SHT31;63247;54.300;18.592;2023-01-19T00:13:59;0.53;99.99
67249;SHT31;63247;54.300;18.592;2023-01-19T00:16:25;0.53;99.99
67249;SHT31;63247;54.300;18.592;2023-01-19T00:18:51;0.53;99.99
67249;SHT31;63247;54.300;18.592;2023-01-19T00:21:17;0.54;99.99
67249;SHT31;63247;54.300;18.592;2023-01-19T00:23:43;0.56;99.99
67249;SHT31;63247;54.300;18.592;2023-01-19T00:26:12;0.57;99.99
67249;SHT31;63247;54.300;18.592;2023-01-19T00:28:37;0.58;99.99
67249;SHT31;63247;54.300;18.592;2023-01-19T00:31:03;0.62;99.99
67249;SHT31;63247;54.300;18.592;2023-01-19T00:33:28;0.65;99.99
67249;SHT31;63247;54.300;18.592;2023-01-19T00:35:54;0.72;99.99
67249;SHT31;63247;54.300;18.592;2023-01-19T00:38:20;0.74;99.99
67249;SHT31;63247;54.300;18.592;2023-01-19T00:40:46;0.71;99.99
67249;SHT31;63247;54.300;18.592;2023-01-19T00:43:12;0.74;99.99
67249;SHT31;63247;54.300;18.592;2023-01-19T00:45:37;0.78;99.99
67249;SHT31;63247;54.300;18.592;2023-01-19T00:48:03;0.87;99.99
67249;SHT31;63247;54.300;18.592;2023-01-19T00:50:29;0.81;99.99
67249;SHT31;63247;54.300;18.592;2023-01-19T00:52:56;0.81;99.99
67249;SHT31;63247;54.300;18.592;2023-01-19T00:55:25;0.80;99.99
67249;SHT31;63247;54.300;18.592;2023-01-19T00:57:52;0.78;99.99
67249;SHT31;63247;54.300;18.592;2023-01-19T01:00:19;0.77;99.99
67249;SHT31;63247;54.300;18.592;2023-01-19T01:02:45;0.77;99.99
67249;SHT31;63247;54.300;18.592;2023-01-19T01:05:11;0.82;99.99
67249;SHT31;63247;54.300;18.592;2023-01-19T01:07:37;0.87;99.99
67249;SHT31;63247;54.300;18.592;2023-01-19T01:12:39;0.85;99.99
67249;SHT31;63247;54.300;18.592;2023-01-19T01:15:06;0.84;99.99
67249;SHT31;63247;54.300;18.592;2023-01-19T01:17:32;0.92;99.99
67249;SHT31;63247;54.300;18.592;2023-01-19T01:19:57;0.92;99.99
67249;SHT31;63247;54.300;18.592;2023-01-19T01:22:23;0.92;99.99
67249;SHT31;63247;54.300;18.592;2023-01-19T01:24:48;0.89;99.99
67249;SHT31;63247;54.300;18.592;2023-01-19T01:27:14;0.84;99.99
67249;SHT31;63247;54.300;18.592;2023-01-19T01:29:39;0.87;99.99
67249;SHT31;63247;54.300;18.592;2023-01-19T01:32:07;0.84;99.99
67249;SHT31;63247;54.300;18.592;2023-01-19T01:34:32;0.87;99.99
67249;SHT31;63247;54.300;18.592;2023-01-19T01:36:58;0.84;99.99
67249;SHT31;63247;54.300;18.592;2023-01-19T01:39:23;0.80;99.99
67249;SHT31;63247;54.300;18.592;2023-01-19T01:41:48;0.81;99.99
67249;SHT31;63247;54.300;18.592;2023-01-19T01:44:44;0.78;99.99
67249;SHT31;63247;54.300;18.592;2023-01-19T01:47:39;0.74;99.99
67249;SHT31;63247;54.300;18.592;2023-01-19T01:52:46;0.70;99.99
67249;SHT31;63247;54.300;18.592;2023-01-19T01:55:14;0.67;99.99
67249;SHT31;63247;54.300;18.592;2023-01-19T01:57:43;0.67;99.99
67249;SHT31;63247;54.300;18.592;2023-01-19T02:00:10;0.67;99.99
67249;SHT31;63247;54.300;18.592;2023-01-19T02:02:36;0.67;99.99
67249;SHT31;63247;54.300;18.592;2023-01-19T02:05:27;0.65;99.99
67249;SHT31;63247;54.300;18.592;2023-01-19T02:08:01;0.61;99.99
67249;SHT31;63247;54.300;18.592;2023-01-19T02:10:45;0.68;99.99
67249;SHT31;63247;54.300;18.592;2023-01-19T02:13:33;0.62;99.99
67249;SHT31;63247;54.300;18.592;2023-01-19T02:16:01;0.64;99.99
67249;SHT31;63247;54.300;18.592;2023-01-19T02:18:29;0.62;99.99
67249;SHT31;63247;54.300;18.592;2023-01-19T02:21:14;0.64;99.99
67249;SHT31;63247;54.300;18.592;2023-01-19T02:23:48;0.68;99.99
67249;SHT31;63247;54.300;18.592;2023-01-19T02:26:23;0.67;99.99
67249;SHT31;63247;54.300;18.592;2023-01-19T02:28:55;0.74;99.99
67249;SHT31;63247;54.300;18.592;2023-01-19T02:31:22;0.64;99.99
67249;SHT31;63247;54.300;18.592;2023-01-19T02:33:48;0.61;99.99
67249;SHT31;63247;54.300;18.592;2023-01-19T02:36:15;0.61;99.99
67249;SHT31;63247;54.300;18.592;2023-01-19T02:38:43;0.60;99.99
67249;SHT31;63247;54.300;18.592;2023-01-19T02:41:15;0.58;99.99
67249;SHT31;63247;54.300;18.592;2023-01-19T02:43:41;0.58;99.99
67249;SHT31;63247;54.300;18.592;2023-01-19T02:46:07;0.57;99.76
67249;SHT31;63247;54.300;18.592;2023-01-19T02:48:33;0.60;99.79
67249;SHT31;63247;54.300;18.592;2023-01-19T02:51:02;0.51;99.85
67249;SHT31;63247;54.300;18.592;2023-01-19T02:53:41;0.49;99.92
67249;SHT31;63247;54.300;18.592;2023-01-19T02:56:37;0.51;99.98
67249;SHT31;63247;54.300;18.592;2023-01-19T03:02:13;0.49;99.99
67249;SHT31;63247;54.300;18.592;2023-01-19T03:07:33;0.44;99.05
67249;SHT31;63247;54.300;18.592;2023-01-19T03:10:10;0.47;98.49
67249;SHT31;63247;54.300;18.592;2023-01-19T03:17:46;0.53;98.46
67249;SHT31;63247;54.300;18.592;2023-01-19T03:20:13;0.54;98.14
67249;SHT31;63247;54.300;18.592;2023-01-19T03:22:41;0.49;98.70
67249;SHT31;63247;54.300;18.592;2023-01-19T03:25:07;0.46;99.03
67249;SHT31;63247;54.300;18.592;2023-01-19T03:27:36;0.49;98.88
67249;SHT31;63247;54.300;18.592;2023-01-19T03:30:18;0.51;98.95
67249;SHT31;63247;54.300;18.592;2023-01-19T03:32:58;0.50;99.15
67249;SHT31;63247;54.300;18.592;2023-01-19T03:35:28;0.47;99.34
67249;SHT31;63247;54.300;18.592;2023-01-19T03:37:56;0.46;99.57
67249;SHT31;63247;54.300;18.592;2023-01-19T03:40:26;0.47;99.50
67249;SHT31;63247;54.300;18.592;2023-01-19T03:42:54;0.44;99.68
67249;SHT31;63247;54.300;18.592;2023-01-19T03:45:20;0.46;99.80
67249;SHT31;63247;54.300;18.592;2023-01-19T03:47:47;0.43;99.64
67249;SHT31;63247;54.300;18.592;2023-01-19T03:50:19;0.47;99.58
67249;SHT31;63247;54.300;18.592;2023-01-19T03:53:09;0.49;99.30
67249;SHT31;63247;54.300;18.592;2023-01-19T03:55:36;0.54;98.97
67249;SHT31;63247;54.300;18.592;2023-01-19T03:58:01;0.53;99.09
67249;SHT31;63247;54.300;18.592;2023-01-19T04:00:27;0.57;98.82
67249;SHT31;63247;54.300;18.592;2023-01-19T04:02:53;0.54;98.70
67249;SHT31;63247;54.300;18.592;2023-01-19T04:05:19;0.57;98.78
67249;SHT31;63247;54.300;18.592;2023-01-19T04:07:47;0.54;98.87
67249;SHT31;63247;54.300;18.592;2023-01-19T04:10:14;0.64;98.32
67249;SHT31;63247;54.300;18.592;2023-01-19T04:12:40;0.67;98.10
67249;SHT31;63247;54.300;18.592;2023-01-19T04:15:06;0.61;98.09
67249;SHT31;63247;54.300;18.592;2023-01-19T04:17:31;0.54;98.13
67249;SHT31;63247;54.300;18.592;2023-01-19T04:19:57;0.57;97.93
67249;SHT31;63247;54.300;18.592;2023-01-19T04:22:22;0.58;97.64
67249;SHT31;63247;54.300;18.592;2023-01-19T04:24:48;0.54;97.88
67249;SHT31;63247;54.300;18.592;2023-01-19T04:27:13;0.56;97.91
67249;SHT31;63247;54.300;18.592;2023-01-19T04:29:40;0.53;97.89
67249;SHT31;63247;54.300;18.592;2023-01-19T04:32:06;0.46;98.25
67249;SHT31;63247;54.300;18.592;2023-01-19T04:34:31;0.37;98.48
67249;SHT31;63247;54.300;18.592;2023-01-19T04:36:57;0.32;98.57
67249;SHT31;63247;54.300;18.592;2023-01-19T04:39:22;0.29;98.74
67249;SHT31;63247;54.300;18.592;2023-01-19T04:41:48;0.20;99.08
67249;SHT31;63247;54.300;18.592;2023-01-19T04:44:13;0.16;98.99
67249;SHT31;63247;54.300;18.592;2023-01-19T04:46:39;0.05;99.04
67249;SHT31;63247;54.300;18.592;2023-01-19T04:49:04;0.01;99.11
67249;SHT31;63247;54.300;18.592;2023-01-19T04:51:29;-0.07;99.69
67249;SHT31;63247;54.300;18.592;2023-01-19T04:53:55;-0.11;99.71
67249;SHT31;63247;54.300;18.592;2023-01-19T04:56:22;-0.14;99.70
67249;SHT31;63247;54.300;18.592;2023-01-19T04:58:47;-0.19;99.88
67249;SHT31;63247;54.300;18.592;2023-01-19T05:01:13;-0.36;99.88
67249;SHT31;63247;54.300;18.592;2023-01-19T05:03:38;-0.46;99.99
67249;SHT31;63247;54.300;18.592;2023-01-19T05:06:04;-0.55;99.99
67249;SHT31;63247;54.300;18.592;2023-01-19T05:08:30;-0.63;99.99
67249;SHT31;63247;54.300;18.592;2023-01-19T05:10:56;-0.73;99.99
67249;SHT31;63247;54.300;18.592;2023-01-19T05:13:22;-0.79;99.99
67249;SHT31;63247;54.300;18.592;2023-01-19T05:15:47;-0.85;99.99
67249;SHT31;63247;54.300;18.592;2023-01-19T05:18:13;-0.94;99.99
67249;SHT31;63247;54.300;18.592;2023-01-19T05:20:38;-1.00;99.99
67249;SHT31;63247;54.300;18.592;2023-01-19T05:23:04;-1.03;99.99
67249;SHT31;63247;54.300;18.592;2023-01-19T05:25:29;-1.08;99.99
67249;SHT31;63247;54.300;18.592;2023-01-19T05:27:55;-1.08;99.99
67249;SHT31;63247;54.300;18.592;2023-01-19T05:30:20;-1.03;99.99
67249;SHT31;63247;54.300;18.592;2023-01-19T05:32:46;-1.04;99.99
67249;SHT31;63247;54.300;18.592;2023-01-19T05:35:11;-1.00;99.99
67249;SHT31;63247;54.300;18.592;2023-01-19T05:37:38;-1.12;99.99
67249;SHT31;63247;54.300;18.592;2023-01-19T05:40:04;-1.16;99.99
67249;SHT31;63247;54.300;18.592;2023-01-19T05:42:29;-1.08;99.99
67249;SHT31;63247;54.300;18.592;2023-01-19T05:44:55;-1.15;99.99
67249;SHT31;63247;54.300;18.592;2023-01-19T05:47:20;-1.09;99.99
67249;SHT31;63247;54.300;18.592;2023-01-19T05:49:45;-1.19;99.99
67249;SHT31;63247;54.300;18.592;2023-01-19T05:52:11;-1.21;99.99
67249;SHT31;63247;54.300;18.592;2023-01-19T05:54:36;-1.28;99.99
67249;SHT31;63247;54.300;18.592;2023-01-19T05:57:04;-1.14;99.99
67249;SHT31;63247;54.300;18.592;2023-01-19T05:59:30;-1.21;99.99
67249;SHT31;63247;54.300;18.592;2023-01-19T06:01:55;-1.38;99.99
67249;SHT31;63247;54.300;18.592;2023-01-19T06:04:21;-1.42;99.99
67249;SHT31;63247;54.300;18.592;2023-01-19T06:06:50;-1.51;99.99
67249;SHT31;63247;54.300;18.592;2023-01-19T06:09:15;-1.42;99.99
67249;SHT31;63247;54.300;18.592;2023-01-19T06:11:44;-1.25;99.99
67249;SHT31;63247;54.300;18.592;2023-01-19T06:14:10;-1.39;99.99
67249;SHT31;63247;54.300;18.592;2023-01-19T06:16:36;-1.46;99.99
67249;SHT31;63247;54.300;18.592;2023-01-19T06:19:01;-1.51;99.99
67249;SHT31;63247;54.300;18.592;2023-01-19T06:21:27;-1.56;99.99
67249;SHT31;63247;54.300;18.592;2023-01-19T06:23:52;-1.59;99.99
67249;SHT31;63247;54.300;18.592;2023-01-19T06:26:17;-1.66;99.99
67249;SHT31;63247;54.300;18.592;2023-01-19T06:28:43;-1.56;99.99
67249;SHT31;63247;54.300;18.592;2023-01-19T06:31:08;-1.63;99.99
67249;SHT31;63247;54.300;18.592;2023-01-19T06:33:34;-1.59;99.99
67249;SHT31;63247;54.300;18.592;2023-01-19T06:35:59;-1.55;99.99
67249;SHT31;63247;54.300;18.592;2023-01-19T06:38:24;-1.62;99.99
67249;SHT31;63247;54.300;18.592;2023-01-19T06:40:55;-1.67;99.99
67249;SHT31;63247;54.300;18.592;2023-01-19T06:43:23;-1.60;99.99
67249;SHT31;63247;54.300;18.592;2023-01-19T06:45:48;-1.60;99.99
67249;SHT31;63247;54.300;18.592;2023-01-19T06:48:14;-1.74;99.99
67249;SHT31;63247;54.300;18.592;2023-01-19T06:50:40;-1.76;99.99
67249;SHT31;63247;54.300;18.592;2023-01-19T06:53:05;-1.77;99.99
67249;SHT31;63247;54.300;18.592;2023-01-19T06:55:31;-1.73;99.99
67249;SHT31;63247;54.300;18.592;2023-01-19T06:57:57;-1.69;99.99
67249;SHT31;63247;54.300;18.592;2023-01-19T07:00:24;-1.59;99.99
67249;SHT31;63247;54.300;18.592;2023-01-19T07:02:49;-1.56;99.99
67249;SHT31;63247;54.300;18.592;2023-01-19T07:05:15;-1.56;99.99
67249;SHT31;63247;54.300;18.592;2023-01-19T07:07:40;-1.67;99.99
67249;SHT31;63247;54.300;18.592;2023-01-19T07:10:08;-1.64;99.99
67249;SHT31;63247;54.300;18.592;2023-01-19T07:12:34;-1.66;99.99
67249;SHT31;63247;54.300;18.592;2023-01-19T07:14:59;-1.64;99.99
67249;SHT31;63247;54.300;18.592;2023-01-19T07:17:25;-1.63;99.99
67249;SHT31;63247;54.300;18.592;2023-01-19T07:19:50;-1.64;99.99
67249;SHT31;63247;54.300;18.592;2023-01-19T07:22:15;-1.66;99.99
67249;SHT31;63247;54.300;18.592;2023-01-19T07:24:41;-1.72;99.99
67249;SHT31;63247;54.300;18.592;2023-01-19T07:27:06;-1.63;99.99
67249;SHT31;63247;54.300;18.592;2023-01-19T07:29:32;-1.66;99.99
67249;SHT31;63247;54.300;18.592;2023-01-19T07:31:57;-1.43;99.99
67249;SHT31;63247;54.300;18.592;2023-01-19T07:34:23;-1.39;99.99
67249;SHT31;63247;54.300;18.592;2023-01-19T07:36:48;-1.25;99.99
67249;SHT31;63247;54.300;18.592;2023-01-19T07:39:14;-1.12;99.99
67249;SHT31;63247;54.300;18.592;2023-01-19T07:41:40;-1.14;99.99
67249;SHT31;63247;54.300;18.592;2023-01-19T07:44:05;-1.19;99.99
67249;SHT31;63247;54.300;18.592;2023-01-19T07:46:31;-1.04;99.99
67249;SHT31;63247;54.300;18.592;2023-01-19T07:48:56;-1.12;99.99
67249;SHT31;63247;54.300;18.592;2023-01-19T07:51:22;-0.93;99.99
67249;SHT31;63247;54.300;18.592;2023-01-19T07:53:50;-0.81;99.99
67249;SHT31;63247;54.300;18.592;2023-01-19T07:56:16;-0.76;99.99
67249;SHT31;63247;54.300;18.592;2023-01-19T07:58:41;-0.79;99.99
67249;SHT31;63247;54.300;18.592;2023-01-19T08:01:09;-0.72;99.99
67249;SHT31;63247;54.300;18.592;2023-01-19T08:03:35;-0.69;99.99
67249;SHT31;63247;54.300;18.592;2023-01-19T08:06:00;-0.60;99.99
67249;SHT31;63247;54.300;18.592;2023-01-19T08:08:28;-0.52;99.99
67249;SHT31;63247;54.300;18.592;2023-01-19T08:10:54;-0.42;99.99
67249;SHT31;63247;54.300;18.592;2023-01-19T08:13:19;-0.36;99.99
67249;SHT31;63247;54.300;18.592;2023-01-19T08:15:48;-0.36;99.99
67249;SHT31;63247;54.300;18.592;2023-01-19T08:18:14;-0.37;99.99
67249;SHT31;63247;54.300;18.592;2023-01-19T08:20:39;-0.48;99.99
67249;SHT31;63247;54.300;18.592;2023-01-19T08:23:05;-0.46;99.99
67249;SHT31;63247;54.300;18.592;2023-01-19T08:27:56;-0.49;99.99
67249;SHT31;63247;54.300;18.592;2023-01-19T08:30:22;-0.49;99.99
67249;SHT31;63247;54.300;18.592;2023-01-19T08:32:51;-0.46;99.99
67249;SHT31;63247;54.300;18.592;2023-01-19T08:35:16;-0.26;99.99
67249;SHT31;63247;54.300;18.592;2023-01-19T08:37:42;0.09;99.99
67249;SHT31;63247;54.300;18.592;2023-01-19T08:40:08;0.68;99.40
67249;SHT31;63247;54.300;18.592;2023-01-19T08:42:33;1.23;97.91
67249;SHT31;63247;54.300;18.592;2023-01-19T08:44:59;1.59;96.11
67249;SHT31;63247;54.300;18.592;2023-01-19T08:47:24;1.87;96.24
67249;SHT31;63247;54.300;18.592;2023-01-19T08:49:49;1.68;95.91
67249;SHT31;63247;54.300;18.592;2023-01-19T08:52:15;1.38;95.12
67249;SHT31;63247;54.300;18.592;2023-01-19T08:54:40;1.56;96.03
67249;SHT31;63247;54.300;18.592;2023-01-19T08:57:05;1.88;95.18
67249;SHT31;63247;54.300;18.592;2023-01-19T08:59:31;3.12;91.61
67249;SHT31;63247;54.300;18.592;2023-01-19T09:01:56;4.18;87.87
67249;SHT31;63247;54.300;18.592;2023-01-19T09:04:23;4.49;85.74
67249;SHT31;63247;54.300;18.592;2023-01-19T09:06:49;3.66;90.39
67249;SHT31;63247;54.300;18.592;2023-01-19T09:09:14;3.18;89.78
67249;SHT31;63247;54.300;18.592;2023-01-19T09:11:40;3.33;89.24
67249;SHT31;63247;54.300;18.592;2023-01-19T09:14:06;3.45;88.49
67249;SHT31;63247;54.300;18.592;2023-01-19T09:16:32;3.64;87.30
67249;SHT31;63247;54.300;18.592;2023-01-19T09:18:58;4.14;87.58
67249;SHT31;63247;54.300;18.592;2023-01-19T09:21:23;4.42;85.82
67249;SHT31;63247;54.300;18.592;2023-01-19T09:23:49;4.42;84.01
67249;SHT31;63247;54.300;18.592;2023-01-19T09:26:14;3.74;86.88
67249;SHT31;63247;54.300;18.592;2023-01-19T09:28:40;3.83;87.15
67249;SHT31;63247;54.300;18.592;2023-01-19T09:31:07;3.97;86.39
67249;SHT31;63247;54.300;18.592;2023-01-19T09:33:33;3.77;86.30
67249;SHT31;63247;54.300;18.592;2023-01-19T09:35:58;4.41;84.65
67249;SHT31;63247;54.300;18.592;2023-01-19T09:38:24;4.79;84.05
67249;SHT31;63247;54.300;18.592;2023-01-19T09:40:53;4.72;84.32
67249;SHT31;63247;54.300;18.592;2023-01-19T09:43:43;5.21;82.31
67249;SHT31;63247;54.300;18.592;2023-01-19T09:46:40;5.11;82.83
67249;SHT31;63247;54.300;18.592;2023-01-19T09:49:20;5.17;82.76
67249;SHT31;63247;54.300;18.592;2023-01-19T09:51:49;4.83;82.63
67249;SHT31;63247;54.300;18.592;2023-01-19T09:54:32;5.01;82.64
67249;SHT31;63247;54.300;18.592;2023-01-19T09:57:00;5.56;81.55
67249;SHT31;63247;54.300;18.592;2023-01-19T09:59:28;6.02;80.26
67249;SHT31;63247;54.300;18.592;2023-01-19T10:02:12;6.55;78.28
67249;SHT31;63247;54.300;18.592;2023-01-19T10:04:40;6.96;77.57
67249;SHT31;63247;54.300;18.592;2023-01-19T10:10:04;7.16;74.06
67249;SHT31;63247;54.300;18.592;2023-01-19T10:21:03;7.61;71.87
67249;SHT31;63247;54.300;18.592;2023-01-19T10:23:40;7.17;73.59
67249;SHT31;63247;54.300;18.592;2023-01-19T10:28:48;7.07;72.88
67249;SHT31;63247;54.300;18.592;2023-01-19T10:31:17;6.88;71.75
67249;SHT31;63247;54.300;18.592;2023-01-19T10:33:43;6.64;73.45
67249;SHT31;63247;54.300;18.592;2023-01-19T10:36:16;7.19;72.48
67249;SHT31;63247;54.300;18.592;2023-01-19T10:38:43;7.13;72.38
67249;SHT31;63247;54.300;18.592;2023-01-19T10:41:21;7.16;73.71
67249;SHT31;63247;54.300;18.592;2023-01-19T10:43:58;6.10;75.44
67249;SHT31;63247;54.300;18.592;2023-01-19T10:46:37;5.55;76.64
67249;SHT31;63247;54.300;18.592;2023-01-19T10:49:05;6.49;74.85
67249;SHT31;63247;54.300;18.592;2023-01-19T10:51:30;6.24;74.41
67249;SHT31;63247;54.300;18.592;2023-01-19T10:54:01;6.95;72.78
67249;SHT31;63247;54.300;18.592;2023-01-19T10:56:33;7.50;72.31
67249;SHT31;63247;54.300;18.592;2023-01-19T10:59:00;7.61;71.33
67249;SHT31;63247;54.300;18.592;2023-01-19T11:01:26;7.28;71.67
67249;SHT31;63247;54.300;18.592;2023-01-19T11:03:53;7.30;71.37
67249;SHT31;63247;54.300;18.592;2023-01-19T11:06:27;7.50;72.36
67249;SHT31;63247;54.300;18.592;2023-01-19T11:09:10;7.52;70.52
67249;SHT31;63247;54.300;18.592;2023-01-19T11:11:41;8.17;69.72
67249;SHT31;63247;54.300;18.592;2023-01-19T11:14:13;7.12;72.53
67249;SHT31;63247;54.300;18.592;2023-01-19T11:16:39;6.52;75.46
67249;SHT31;63247;54.300;18.592;2023-01-19T11:19:28;5.41;76.07
67249;SHT31;63247;54.300;18.592;2023-01-19T11:22:17;4.62;80.21
67249;SHT31;63247;54.300;18.592;2023-01-19T11:24:47;4.84;80.54
67249;SHT31;63247;54.300;18.592;2023-01-19T11:27:18;4.68;81.01
67249;SHT31;63247;54.300;18.592;2023-01-19T11:29:49;4.75;81.93
67249;SHT31;63247;54.300;18.592;2023-01-19T11:32:22;4.30;81.69
67249;SHT31;63247;54.300;18.592;2023-01-19T11:34:48;4.44;82.44
67249;SHT31;63247;54.300;18.592;2023-01-19T11:39:50;3.73;84.33
67249;SHT31;63247;54.300;18.592;2023-01-19T11:42:17;3.22;85.57
67249;SHT31;63247;54.300;18.592;2023-01-19T11:47:25;2.97;85.94
67249;SHT31;63247;54.300;18.592;2023-01-19T11:50:05;2.77;86.42
67249;SHT31;63247;54.300;18.592;2023-01-19T11:57:48;2.90;86.79
67249;SHT31;63247;54.300;18.592;2023-01-19T12:00:38;2.85;86.51
67249;SHT31;63247;54.300;18.592;2023-01-19T12:03:10;2.77;86.71
67249;SHT31;63247;54.300;18.592;2023-01-19T12:05:40;2.66;87.50
67249;SHT31;63247;54.300;18.592;2023-01-19T12:08:13;2.72;86.83
67249;SHT31;63247;54.300;18.592;2023-01-19T12:10:43;2.81;86.91
67249;SHT31;63247;54.300;18.592;2023-01-19T12:13:23;2.93;86.50
67249;SHT31;63247;54.300;18.592;2023-01-19T12:15:53;2.87;86.63
67249;SHT31;63247;54.300;18.592;2023-01-19T12:18:24;3.07;87.07
67249;SHT31;63247;54.300;18.592;2023-01-19T12:20:53;2.97;86.33
67249;SHT31;63247;54.300;18.592;2023-01-19T12:26:55;2.81;86.98
67249;SHT31;63247;54.300;18.592;2023-01-19T12:29:20;2.91;86.65
67249;SHT31;63247;54.300;18.592;2023-01-19T12:34:49;2.94;87.53
67249;SHT31;63247;54.300;18.592;2023-01-19T12:37:35;2.85;87.21
67249;SHT31;63247;54.300;18.592;2023-01-19T12:42:45;2.67;88.03
67249;SHT31;63247;54.300;18.592;2023-01-19T12:45:14;2.61;88.17
67249;SHT31;63247;54.300;18.592;2023-01-19T12:47:49;2.70;88.19
67249;SHT31;63247;54.300;18.592;2023-01-19T12:50:17;2.60;88.36
67249;SHT31;63247;54.300;18.592;2023-01-19T12:52:52;2.39;88.74
67249;SHT31;63247;54.300;18.592;2023-01-19T12:55:41;2.43;89.36
67249;SHT31;63247;54.300;18.592;2023-01-19T12:58:21;2.45;89.14
67249;SHT31;63247;54.300;18.592;2023-01-19T13:00:49;2.43;89.39
67249;SHT31;63247;54.300;18.592;2023-01-19T13:13:45;2.07;91.02
67249;SHT31;63247;54.300;18.592;2023-01-19T13:21:41;1.99;91.27
67249;SHT31;63247;54.300;18.592;2023-01-19T13:24:13;1.93;91.23
67249;SHT31;63247;54.300;18.592;2023-01-19T13:26:53;1.82;91.71
67249;SHT31;63247;54.300;18.592;2023-01-19T13:32:00;1.82;91.78
67249;SHT31;63247;54.300;18.592;2023-01-19T13:34:50;1.74;91.77
67249;SHT31;63247;54.300;18.592;2023-01-19T13:37:22;1.81;92.01
67249;SHT31;63247;54.300;18.592;2023-01-19T13:39:50;1.81;92.06
67249;SHT31;63247;54.300;18.592;2023-01-19T13:44:51;1.73;92.44
67249;SHT31;63247;54.300;18.592;2023-01-19T13:50:23;1.74;92.71
67249;SHT31;63247;54.300;18.592;2023-01-19T13:52:48;1.80;92.33
67249;SHT31;63247;54.300;18.592;2023-01-19T13:55:15;1.74;92.69
67249;SHT31;63247;54.300;18.592;2023-01-19T13:57:42;1.70;93.46
67249;SHT31;63247;54.300;18.592;2023-01-19T14:15:49;1.68;94.05
67249;SHT31;63247;54.300;18.592;2023-01-19T14:20:58;1.61;93.83
67249;SHT31;63247;54.300;18.592;2023-01-19T14:27:08;1.64;93.59
67249;SHT31;63247;54.300;18.592;2023-01-19T14:29:35;1.67;93.68
67249;SHT31;63247;54.300;18.592;2023-01-19T14:36:53;1.82;93.33
67249;SHT31;63247;54.300;18.592;2023-01-19T14:39:22;1.82;93.40
67249;SHT31;63247;54.300;18.592;2023-01-19T14:41:49;1.95;93.23
67249;SHT31;63247;54.300;18.592;2023-01-19T14:44:30;1.80;93.61
67249;SHT31;63247;54.300;18.592;2023-01-19T14:47:28;1.70;93.67
67249;SHT31;63247;54.300;18.592;2023-01-19T14:49:57;1.64;94.20
67249;SHT31;63247;54.300;18.592;2023-01-19T14:52:35;1.63;94.39
67249;SHT31;63247;54.300;18.592;2023-01-19T14:55:02;1.53;94.47
67249;SHT31;63247;54.300;18.592;2023-01-19T14:57:32;1.54;94.57
67249;SHT31;63247;54.300;18.592;2023-01-19T14:59:58;1.51;94.86
67249;SHT31;63247;54.300;18.592;2023-01-19T15:02:23;1.61;94.88
67249;SHT31;63247;54.300;18.592;2023-01-19T15:04:49;1.49;95.26
67249;SHT31;63247;54.300;18.592;2023-01-19T15:07:19;1.53;95.50
67249;SHT31;63247;54.300;18.592;2023-01-19T15:09:47;1.49;95.62
67249;SHT31;63247;54.300;18.592;2023-01-19T15:12:14;1.43;95.90
67249;SHT31;63247;54.300;18.592;2023-01-19T15:14:40;1.53;96.10
67249;SHT31;63247;54.300;18.592;2023-01-19T15:17:16;1.68;95.87
67249;SHT31;63247;54.300;18.592;2023-01-19T15:19:49;1.74;96.26
67249;SHT31;63247;54.300;18.592;2023-01-19T15:22:14;1.60;96.83
67249;SHT31;63247;54.300;18.592;2023-01-19T15:24:40;1.49;97.47
67249;SHT31;63247;54.300;18.592;2023-01-19T15:27:09;1.53;97.40
67249;SHT31;63247;54.300;18.592;2023-01-19T15:29:35;1.70;96.99
67249;SHT31;63247;54.300;18.592;2023-01-19T15:32:00;1.64;97.09
67249;SHT31;63247;54.300;18.592;2023-01-19T15:34:26;1.51;97.45
67249;SHT31;63247;54.300;18.592;2023-01-19T15:36:51;1.46;98.04
67249;SHT31;63247;54.300;18.592;2023-01-19T15:39:17;1.59;97.88
67249;SHT31;63247;54.300;18.592;2023-01-19T15:41:42;1.43;97.83
67249;SHT31;63247;54.300;18.592;2023-01-19T15:44:09;1.51;97.74
67249;SHT31;63247;54.300;18.592;2023-01-19T15:46:35;1.56;97.50
67249;SHT31;63247;54.300;18.592;2023-01-19T15:49:00;1.46;97.82
67249;SHT31;63247;54.300;18.592;2023-01-19T15:51:26;1.51;97.89
67249;SHT31;63247;54.300;18.592;2023-01-19T15:53:52;1.43;98.33
67249;SHT31;63247;54.300;18.592;2023-01-19T15:56:21;1.28;99.48
67249;SHT31;63247;54.300;18.592;2023-01-19T15:58:47;1.35;99.09
67249;SHT31;63247;54.300;18.592;2023-01-19T16:01:15;1.29;99.52
67249;SHT31;63247;54.300;18.592;2023-01-19T16:03:41;1.29;99.49
67249;SHT31;63247;54.300;18.592;2023-01-19T16:06:06;1.22;99.67
67249;SHT31;63247;54.300;18.592;2023-01-19T16:08:32;1.15;99.99
67249;SHT31;63247;54.300;18.592;2023-01-19T16:11:02;1.12;99.99
67249;SHT31;63247;54.300;18.592;2023-01-19T16:13:28;1.03;99.99
67249;SHT31;63247;54.300;18.592;2023-01-19T16:15:55;1.05;99.99
67249;SHT31;63247;54.300;18.592;2023-01-19T16:18:20;0.92;99.99
67249;SHT31;63247;54.300;18.592;2023-01-19T16:20:45;0.99;99.99
67249;SHT31;63247;54.300;18.592;2023-01-19T16:23:11;0.89;99.99
67249;SHT31;63247;54.300;18.592;2023-01-19T16:25:36;0.92;99.99
67249;SHT31;63247;54.300;18.592;2023-01-19T16:28:02;0.88;99.99
67249;SHT31;63247;54.300;18.592;2023-01-19T16:30:27;0.87;99.99
67249;SHT31;63247;54.300;18.592;2023-01-19T16:32:52;0.78;99.99
67249;SHT31;63247;54.300;18.592;2023-01-19T16:35:18;0.78;99.99
67249;SHT31;63247;54.300;18.592;2023-01-19T16:37:48;0.85;99.99
67249;SHT31;63247;54.300;18.592;2023-01-19T16:40:14;0.82;99.99
67249;SHT31;63247;54.300;18.592;2023-01-19T16:42:39;0.70;99.99
67249;SHT31;63247;54.300;18.592;2023-01-19T16:45:06;0.70;99.99
67249;SHT31;63247;54.300;18.592;2023-01-19T16:47:31;0.72;99.99
67249;SHT31;63247;54.300;18.592;2023-01-19T16:49:56;0.80;99.99
67249;SHT31;63247;54.300;18.592;2023-01-19T16:52:22;0.74;99.99
67249;SHT31;63247;54.300;18.592;2023-01-19T16:54:47;0.68;99.99
67249;SHT31;63247;54.300;18.592;2023-01-19T16:57:13;0.65;99.99
67249;SHT31;63247;54.300;18.592;2023-01-19T16:59:39;0.62;99.99
67249;SHT31;63247;54.300;18.592;2023-01-19T17:02:05;0.64;99.99
67249;SHT31;63247;54.300;18.592;2023-01-19T17:04:30;0.54;99.99
67249;SHT31;63247;54.300;18.592;2023-01-19T17:06:55;0.60;99.99
67249;SHT31;63247;54.300;18.592;2023-01-19T17:09:21;0.64;99.99
67249;SHT31;63247;54.300;18.592;2023-01-19T17:11:46;0.72;99.99
67249;SHT31;63247;54.300;18.592;2023-01-19T17:14:14;0.70;99.99
67249;SHT31;63247;54.300;18.592;2023-01-19T17:16:41;0.70;99.99
67249;SHT31;63247;54.300;18.592;2023-01-19T17:19:07;0.84;99.99